Time;durP1;ratioP1;P1;durP2;ratioP2;P2;SDS_P1;SDS_P2;PMS_P1;PMS_P2;Temp;Humidity;BMP_temperature;BMP_pressure;BME280_temperature;BME280_humidity;BME280_pressure;Samples;Min_cycle;Max_cycle;Signal;HPM_P1;HPM_P2
2023/01/27 00:00:15;;;;;;;32.47;18.20;;;;;;;3.68;56.86;97665.84;5047497;28;20203;-72
2023/01/27 00:02:41;;;;;;;25.37;16.27;;;;;;;3.69;57.00;97677.91;5048588;28;20606;-73
2023/01/27 00:05:08;;;;;;;29.73;17.93;;;;;;;3.67;56.96;97664.19;5042051;28;20436;-74
2023/01/27 00:07:34;;;;;;;29.87;19.17;;;;;;;3.72;56.55;97662.16;5046860;28;20430;-71
2023/01/27 00:09:59;;;;;;;28.37;17.73;;;;;;;3.75;56.68;97668.88;5050246;28;20494;-74
2023/01/27 00:15:11;;;;;;;25.40;16.27;;;;;;;3.71;56.51;97670.84;5048593;28;20190;-72
2023/01/27 00:17:37;;;;;;;29.17;17.97;;;;;;;3.66;56.41;97667.72;5013391;28;20866;-73
2023/01/27 00:20:03;;;;;;;30.23;17.80;;;;;;;3.59;56.89;97672.44;5048354;28;20445;-72
2023/01/27 00:25:12;;;;;;;28.13;17.13;;;;;;;3.63;57.11;97658.38;5050647;28;20461;-72
2023/01/27 00:27:38;;;;;;;30.40;16.60;;;;;;;3.66;56.89;97653.00;5062993;28;20468;-73
2023/01/27 00:30:05;;;;;;;28.30;17.63;;;;;;;3.70;56.26;97656.22;5048447;28;20211;-72
2023/01/27 00:35:15;;;;;;;29.37;17.27;;;;;;;3.82;56.12;97649.44;5048985;28;20551;-69
2023/01/27 00:37:45;;;;;;;30.97;16.33;;;;;;;3.81;56.33;97656.38;5049938;28;20437;-70
2023/01/27 00:40:15;;;;;;;28.63;17.63;;;;;;;3.82;55.71;97660.63;5036188;28;20293;-71
2023/01/27 00:42:41;;;;;;;23.57;16.23;;;;;;;3.83;56.19;97664.88;5040371;28;20425;-69
2023/01/27 00:47:51;;;;;;;24.50;15.00;;;;;;;3.79;56.78;97663.41;5050646;28;20186;-72
2023/01/27 00:50:17;;;;;;;24.43;16.30;;;;;;;3.80;56.54;97659.06;5053805;28;20442;-71
2023/01/27 00:52:43;;;;;;;24.33;16.10;;;;;;;3.81;56.55;97663.31;5038114;28;20544;-72
2023/01/27 00:55:09;;;;;;;27.00;16.83;;;;;;;3.82;56.99;97663.22;5056595;28;20421;-73
2023/01/27 00:57:36;;;;;;;30.43;20.67;;;;;;;3.87;56.02;97656.91;5043884;28;20446;-71
2023/01/27 01:00:03;;;;;;;28.57;16.50;;;;;;;3.90;56.52;97660.13;5044214;28;20198;-70
2023/01/27 01:02:28;;;;;;;29.73;16.27;;;;;;;3.95;56.37;97662.44;5034345;28;20463;-71
2023/01/27 01:04:54;;;;;;;30.90;16.43;;;;;;;4.00;56.29;97668.16;5048263;28;20535;-71
2023/01/27 01:07:19;;;;;;;24.00;15.20;;;;;;;4.04;55.59;97672.19;5056784;28;20657;-71
2023/01/27 01:09:44;;;;;;;22.93;14.30;;;;;;;3.93;55.57;97672.06;5042955;28;20286;-71
2023/01/27 01:12:10;;;;;;;21.60;14.40;;;;;;;3.93;55.90;97674.66;5055324;28;20290;-71
2023/01/27 01:14:35;;;;;;;25.07;13.97;;;;;;;3.95;55.90;97676.25;5049562;28;20211;-71
2023/01/27 01:17:01;;;;;;;23.87;13.20;;;;;;;3.97;54.92;97676.94;5048463;28;20533;-71
2023/01/27 01:19:29;;;;;;;22.17;14.87;;;;;;;4.06;55.78;97667.75;5052036;28;20627;-71
2023/01/27 01:21:54;;;;;;;21.50;14.27;;;;;;;4.11;55.46;97670.03;5049359;28;20190;-70
2023/01/27 01:24:20;;;;;;;22.83;14.93;;;;;;;4.08;55.26;97673.66;5054466;28;20499;-71
2023/01/27 01:26:45;;;;;;;22.20;14.20;;;;;;;4.10;55.28;97679.59;5036252;28;20180;-71
2023/01/27 01:29:11;;;;;;;26.53;15.47;;;;;;;4.07;55.50;97674.59;5053033;28;20270;-73
2023/01/27 01:31:36;;;;;;;23.70;14.57;;;;;;;4.10;55.43;97677.00;5046949;28;20625;-70
2023/01/27 01:34:01;;;;;;;26.10;14.50;;;;;;;4.06;54.92;97675.53;5053334;28;20225;-71
2023/01/27 01:36:27;;;;;;;28.10;14.53;;;;;;;4.08;55.23;97678.84;5063663;28;20281;-72
2023/01/27 01:38:56;;;;;;;26.73;16.17;;;;;;;4.08;55.69;97667.66;5053735;28;20675;-70
2023/01/27 01:41:22;;;;;;;24.57;15.10;;;;;;;4.10;55.39;97666.63;5063608;28;20229;-73
2023/01/27 01:43:49;;;;;;;28.70;15.27;;;;;;;4.13;55.43;97674.22;5052439;28;20421;-71
2023/01/27 01:46:14;;;;;;;25.53;14.40;;;;;;;4.13;55.31;97676.81;5065106;28;20451;-74
2023/01/27 01:48:57;;;;;;;24.77;15.63;;;;;;;4.09;55.40;97670.16;5060451;28;20432;-72
2023/01/27 01:51:42;;;;;;;25.37;14.90;;;;;;;4.10;55.09;97671.81;5057734;28;20213;-70
2023/01/27 01:54:16;;;;;;;24.93;16.00;;;;;;;4.09;54.96;97666.72;5061983;28;20434;-70
2023/01/27 01:56:47;;;;;;;25.40;15.97;;;;;;;4.08;55.24;97655.50;5057220;28;20413;-73
2023/01/27 01:59:20;;;;;;;24.70;15.90;;;;;;;4.06;55.58;97656.56;5054559;28;20422;-71
2023/01/27 02:01:46;;;;;;;24.10;15.70;;;;;;;4.11;55.20;97655.31;5050500;28;20419;-70
2023/01/27 02:04:16;;;;;;;25.83;15.63;;;;;;;4.09;55.18;97651.97;5056950;28;20426;-70
2023/01/27 02:06:47;;;;;;;26.10;15.40;;;;;;;4.06;55.07;97648.78;5058743;28;20257;-71
2023/01/27 02:09:13;;;;;;;22.77;14.90;;;;;;;4.14;55.39;97638.72;5056320;28;20429;-71
2023/01/27 02:11:39;;;;;;;25.50;15.90;;;;;;;4.12;55.40;97648.34;5060148;28;20480;-70
2023/01/27 02:14:04;;;;;;;27.13;16.47;;;;;;;4.09;55.18;97631.22;5065092;28;20243;-71
2023/01/27 02:16:30;;;;;;;24.10;16.50;;;;;;;3.98;55.17;97641.47;5060440;28;20564;-72
2023/01/27 02:18:56;;;;;;;27.20;15.97;;;;;;;3.96;55.33;97643.34;5063508;28;20698;-71
2023/01/27 02:21:21;;;;;;;27.33;16.40;;;;;;;4.05;56.10;97641.91;5060002;28;20432;-70
2023/01/27 02:24:01;;;;;;;28.83;16.20;;;;;;;3.98;55.54;97638.88;5048161;28;20174;-70
2023/01/27 02:26:35;;;;;;;25.27;15.43;;;;;;;3.99;55.37;97645.75;5043824;28;20837;-71
2023/01/27 02:29:07;;;;;;;22.90;14.13;;;;;;;4.10;55.49;97643.28;5064010;28;20697;-70
2023/01/27 02:31:33;;;;;;;27.23;15.30;;;;;;;4.03;55.35;97639.44;5059407;28;21026;-70
2023/01/27 02:34:08;;;;;;;19.47;13.10;;;;;;;3.97;55.38;97638.03;5064559;28;20431;-70
2023/01/27 02:36:38;;;;;;;25.27;15.30;;;;;;;3.92;55.55;97634.09;5061007;28;20190;-70
2023/01/27 02:39:04;;;;;;;25.03;14.07;;;;;;;3.77;56.09;97633.34;5056161;28;20785;-71
2023/01/27 02:41:33;;;;;;;20.60;13.70;;;;;;;3.80;56.08;97633.13;5037167;28;20439;-70
2023/01/27 02:43:59;;;;;;;24.00;14.33;;;;;;;3.87;56.05;97633.56;5063218;28;20238;-70
2023/01/27 02:46:24;;;;;;;23.17;14.37;;;;;;;3.92;55.90;97637.53;5061757;28;20513;-71
2023/01/27 02:48:50;;;;;;;27.70;14.90;;;;;;;3.92;55.81;97652.25;5050822;28;20183;-70
2023/01/27 02:51:16;;;;;;;23.20;14.13;;;;;;;3.84;55.79;97643.22;5061905;28;20692;-71
2023/01/27 02:53:42;;;;;;;23.97;14.80;;;;;;;3.88;56.16;97635.25;5062966;28;20198;-71
2023/01/27 02:56:07;;;;;;;23.87;13.80;;;;;;;3.96;56.01;97638.16;5062625;28;20179;-71
2023/01/27 02:58:33;;;;;;;22.77;13.70;;;;;;;3.94;55.40;97635.69;5060619;28;20260;-70
2023/01/27 03:00:58;;;;;;;21.83;14.03;;;;;;;3.98;55.43;97636.28;5064397;28;20198;-73
2023/01/27 03:03:24;;;;;;;20.07;12.83;;;;;;;3.91;55.00;97635.88;5063574;28;20262;-71
2023/01/27 03:05:50;;;;;;;23.60;13.00;;;;;;;3.87;55.94;97644.75;5060501;28;20279;-71
2023/01/27 03:08:17;;;;;;;18.70;11.97;;;;;;;3.83;55.74;97628.56;5066062;28;20187;-70
2023/01/27 03:10:42;;;;;;;23.57;14.47;;;;;;;3.73;55.65;97629.25;5035647;28;20807;-72
2023/01/27 03:13:08;;;;;;;23.03;14.20;;;;;;;3.84;55.76;97622.47;5066238;28;20456;-72
2023/01/27 03:18:17;;;;;;;19.90;11.90;;;;;;;3.95;55.90;97623.53;5056233;28;20183;-72
2023/01/27 03:20:46;;;;;;;22.30;13.17;;;;;;;3.97;56.05;97632.84;5064908;28;20436;-72
2023/01/27 03:23:12;;;;;;;22.10;13.37;;;;;;;4.00;55.49;97639.63;5033256;28;20682;-73
2023/01/27 03:25:46;;;;;;;24.00;13.33;;;;;;;3.97;55.86;97635.44;5067219;28;20838;-72
2023/01/27 03:28:12;;;;;;;22.00;13.33;;;;;;;3.98;55.63;97625.91;5059916;28;20429;-72
2023/01/27 03:30:38;;;;;;;20.50;13.07;;;;;;;4.04;55.37;97635.88;5063059;28;20444;-71
2023/01/27 03:33:05;;;;;;;22.33;12.47;;;;;;;4.03;55.91;97639.44;5052788;28;20457;-73
2023/01/27 03:35:38;;;;;;;20.27;12.37;;;;;;;4.04;54.97;97633.28;5068381;28;20424;-72
2023/01/27 03:46:18;;;;;;;19.17;11.53;;;;;;;3.94;55.66;97652.97;5061643;28;20792;-72
2023/01/27 03:48:48;;;;;;;22.37;12.33;;;;;;;4.00;55.78;97647.41;5060260;28;20422;-71
2023/01/27 03:51:14;;;;;;;18.50;11.60;;;;;;;4.02;55.19;97649.88;5063938;28;20198;-73
2023/01/27 03:53:39;;;;;;;19.33;11.60;;;;;;;3.93;54.98;97646.97;5053049;28;20418;-71
2023/01/27 03:56:05;;;;;;;17.83;11.00;;;;;;;3.93;54.83;97646.13;5065086;28;20192;-71
2023/01/27 03:58:34;;;;;;;17.60;11.57;;;;;;;3.97;54.95;97640.63;5056074;28;20626;-71
2023/01/27 04:01:01;;;;;;;15.17;10.80;;;;;;;4.02;55.50;97653.34;5065196;28;20518;-73
2023/01/27 04:09:11;;;;;;;17.90;11.23;;;;;;;4.20;54.55;97645.25;5058870;28;20917;-71
2023/01/27 04:14:31;;;;;;;14.93;10.43;;;;;;;4.17;54.67;97645.44;5059717;28;20436;-71
2023/01/27 04:17:05;;;;;;;20.23;13.50;;;;;;;4.18;54.22;97649.72;5058683;28;20842;-72
2023/01/27 04:19:31;;;;;;;22.17;12.60;;;;;;;4.15;54.56;97651.59;5061652;28;20433;-71
2023/01/27 04:21:57;;;;;;;22.13;13.63;;;;;;;4.01;54.66;97654.25;5059452;28;20416;-71
2023/01/27 04:24:22;;;;;;;18.67;12.77;;;;;;;4.00;54.42;97644.81;5059453;28;20719;-70
2023/01/27 04:26:54;;;;;;;21.20;13.70;;;;;;;3.99;53.97;97649.16;5063758;28;20417;-72
2023/01/27 04:29:20;;;;;;;20.27;13.60;;;;;;;4.04;54.80;97654.03;5060827;28;20193;-73
2023/01/27 04:31:46;;;;;;;25.73;15.40;;;;;;;3.96;54.72;97658.91;5064455;28;20465;-71
2023/01/27 04:34:12;;;;;;;22.40;14.97;;;;;;;3.97;55.08;97661.38;5062338;28;20433;-71
2023/01/27 04:36:39;;;;;;;22.20;12.80;;;;;;;3.99;54.45;97658.72;5066496;28;20174;-70
2023/01/27 04:39:04;;;;;;;19.90;12.30;;;;;;;4.04;54.62;97661.81;5063431;28;20425;-71
2023/01/27 04:41:30;;;;;;;19.07;12.90;;;;;;;4.05;54.94;97662.66;5061952;28;20528;-73
2023/01/27 04:43:55;;;;;;;19.80;12.67;;;;;;;4.01;54.80;97664.63;5063869;28;20239;-72
2023/01/27 04:46:21;;;;;;;17.20;11.60;;;;;;;3.98;54.59;97655.28;5062968;28;20193;-71
2023/01/27 04:48:46;;;;;;;18.03;11.80;;;;;;;4.01;55.14;97651.66;5043892;28;20183;-71
2023/01/27 04:51:12;;;;;;;19.63;12.90;;;;;;;3.96;54.79;97651.97;5056928;28;20659;-70
2023/01/27 04:53:37;;;;;;;21.17;12.90;;;;;;;4.03;54.62;97655.00;5030797;28;20548;-72
2023/01/27 04:56:23;;;;;;;19.13;12.63;;;;;;;4.03;55.03;97657.59;5039665;28;20256;-71
2023/01/27 04:58:48;;;;;;;17.87;12.03;;;;;;;4.05;54.68;97658.28;5055211;28;20175;-70
2023/01/27 05:01:14;;;;;;;21.30;14.10;;;;;;;4.06;55.04;97654.78;5052020;28;20444;-70
2023/01/27 05:03:39;;;;;;;21.10;13.30;;;;;;;4.04;54.69;97656.63;5065193;28;20199;-70
2023/01/27 05:06:05;;;;;;;20.67;14.67;;;;;;;4.04;54.99;97646.25;5057377;28;20187;-70
2023/01/27 05:08:31;;;;;;;21.23;14.20;;;;;;;4.05;54.57;97642.72;5063557;28;20179;-71
2023/01/27 05:10:56;;;;;;;20.43;14.00;;;;;;;4.02;54.52;97658.53;5057030;28;20749;-70
2023/01/27 05:13:21;;;;;;;23.17;15.47;;;;;;;3.97;54.64;97661.38;5042870;28;20403;-71
2023/01/27 05:15:47;;;;;;;20.50;15.40;;;;;;;3.94;55.24;97664.19;5055293;28;20405;-70
2023/01/27 05:18:13;;;;;;;22.40;15.40;;;;;;;3.92;55.04;97663.47;5056714;28;20183;-71
2023/01/27 05:20:38;;;;;;;25.87;16.27;;;;;;;3.87;54.62;97664.69;5062694;28;20304;-71
2023/01/27 05:25:48;;;;;;;24.23;16.47;;;;;;;3.75;55.61;97656.78;5050007;28;20181;-70
2023/01/27 05:28:13;;;;;;;25.27;16.10;;;;;;;3.74;55.28;97654.25;5050216;28;20992;-70
2023/01/27 05:30:39;;;;;;;26.40;16.83;;;;;;;3.65;55.32;97650.53;5067238;28;20693;-71
2023/01/27 05:33:04;;;;;;;25.27;15.30;;;;;;;3.56;54.83;97671.81;5050902;28;20202;-70
2023/01/27 05:35:33;;;;;;;25.20;16.90;;;;;;;3.54;55.71;97680.53;5066987;28;20182;-74
2023/01/27 05:37:59;;;;;;;28.43;17.27;;;;;;;3.62;55.41;97682.63;5060894;28;20228;-74
2023/01/27 05:40:24;;;;;;;27.43;17.50;;;;;;;3.68;55.28;97676.22;5054135;28;20867;-73
2023/01/27 05:42:53;;;;;;;24.80;16.70;;;;;;;3.67;55.46;97684.94;5050549;28;20167;-71
2023/01/27 05:45:19;;;;;;;24.10;16.57;;;;;;;3.73;55.29;97687.16;5055158;28;20210;-72
2023/01/27 05:47:50;;;;;;;32.47;18.90;;;;;;;3.78;55.50;97698.03;5062778;28;21037;-72
2023/01/27 05:50:16;;;;;;;29.77;18.20;;;;;;;3.82;55.55;97696.94;5055351;28;20564;-73
2023/01/27 05:52:41;;;;;;;30.77;19.70;;;;;;;3.87;55.27;97694.03;5057259;28;20452;-72
2023/01/27 05:55:07;;;;;;;28.20;17.37;;;;;;;3.88;55.92;97692.28;5057023;28;20456;-74
2023/01/27 05:57:32;;;;;;;24.47;16.90;;;;;;;3.79;55.56;97697.13;5052759;28;20183;-73
2023/01/27 05:59:58;;;;;;;28.63;18.53;;;;;;;3.88;55.55;97684.50;5047562;28;20210;-71
2023/01/27 06:02:23;;;;;;;25.77;18.27;;;;;;;3.89;55.46;97683.59;5060897;28;20261;-71
2023/01/27 06:04:48;;;;;;;25.93;17.37;;;;;;;3.90;55.28;97690.44;5060441;28;20724;-70
2023/01/27 06:07:14;;;;;;;26.83;17.03;;;;;;;3.91;55.24;97686.88;5052845;28;20870;-70
2023/01/27 06:09:39;;;;;;;27.40;18.00;;;;;;;3.96;55.43;97690.03;5061365;28;20629;-71
2023/01/27 06:12:05;;;;;;;29.13;16.97;;;;;;;3.95;55.56;97688.38;5060055;28;20260;-69
2023/01/27 06:14:30;;;;;;;25.57;17.93;;;;;;;4.04;55.48;97690.34;5065802;28;20171;-69
2023/01/27 06:16:56;;;;;;;26.97;17.40;;;;;;;3.96;55.37;97690.03;5058078;28;20179;-72
2023/01/27 06:19:21;;;;;;;31.60;20.27;;;;;;;4.01;55.14;97698.34;5065978;28;20182;-73
2023/01/27 06:21:47;;;;;;;32.30;19.37;;;;;;;4.09;55.15;97690.91;5057219;28;20258;-71
2023/01/27 06:24:12;;;;;;;27.90;18.33;;;;;;;4.15;54.74;97693.13;5057579;28;20275;-72
2023/01/27 06:26:38;;;;;;;25.57;16.70;;;;;;;4.03;54.73;97695.66;5059082;28;20717;-72
2023/01/27 06:29:03;;;;;;;27.10;17.30;;;;;;;4.10;54.39;97695.16;5060388;28;20708;-70
2023/01/27 06:31:28;;;;;;;31.00;17.87;;;;;;;4.03;54.40;97688.72;5058752;28;20675;-72
2023/01/27 06:33:54;;;;;;;28.87;17.30;;;;;;;4.05;54.69;97698.97;5064268;28;20658;-71
2023/01/27 06:36:20;;;;;;;29.43;17.90;;;;;;;4.04;54.88;97702.50;5061412;28;20184;-72
2023/01/27 06:38:47;;;;;;;28.97;18.13;;;;;;;4.11;55.14;97699.41;5051001;28;20211;-72
2023/01/27 06:41:12;;;;;;;29.53;19.00;;;;;;;4.20;54.17;97700.59;5048950;28;20692;-71
2023/01/27 06:43:38;;;;;;;27.20;17.73;;;;;;;4.20;54.32;97699.75;5064014;28;20427;-69
2023/01/27 06:46:03;;;;;;;29.30;18.83;;;;;;;4.21;54.96;97698.81;5065167;28;20748;-71
2023/01/27 06:48:29;;;;;;;30.37;19.30;;;;;;;4.23;54.78;97702.97;5059035;28;20681;-70
2023/01/27 06:50:55;;;;;;;31.30;17.83;;;;;;;4.20;54.86;97704.94;5057735;28;20206;-71
2023/01/27 06:53:21;;;;;;;28.33;17.90;;;;;;;4.15;55.17;97711.28;5043800;28;20247;-72
2023/01/27 06:55:47;;;;;;;27.67;18.27;;;;;;;4.14;54.45;97725.19;5062154;28;20452;-72
2023/01/27 06:58:14;;;;;;;28.10;17.87;;;;;;;4.09;54.89;97729.00;5054983;28;20417;-73
2023/01/27 07:00:40;;;;;;;27.13;17.50;;;;;;;4.08;55.04;97735.13;5057501;28;20277;-72
2023/01/27 07:03:06;;;;;;;29.60;18.47;;;;;;;4.09;54.48;97723.81;5067249;28;20470;-72
2023/01/27 07:05:33;;;;;;;29.00;17.57;;;;;;;4.12;55.18;97724.44;5052054;28;20421;-72
2023/01/27 07:07:59;;;;;;;26.47;17.77;;;;;;;4.07;55.15;97743.81;5064567;28;20174;-71
2023/01/27 07:10:24;;;;;;;35.27;19.43;;;;;;;4.09;55.69;97747.16;5056354;28;20441;-71
2023/01/27 07:12:50;;;;;;;23.30;16.43;;;;;;;4.03;55.14;97753.56;5058642;28;20207;-71
2023/01/27 07:15:15;;;;;;;25.33;16.87;;;;;;;4.12;55.62;97752.13;5058341;28;20257;-72
2023/01/27 07:17:41;;;;;;;24.27;16.13;;;;;;;4.08;54.98;97758.47;5058305;28;20531;-71
2023/01/27 07:20:08;;;;;;;29.00;17.00;;;;;;;4.04;54.69;97759.56;5060184;28;20344;-72
2023/01/27 07:22:34;;;;;;;26.10;17.60;;;;;;;4.05;54.98;97764.66;5059358;28;20205;-73
2023/01/27 07:25:00;;;;;;;30.30;17.90;;;;;;;3.96;55.16;97757.47;5064467;28;20991;-71
2023/01/27 07:27:27;;;;;;;28.80;18.50;;;;;;;3.93;55.68;97763.69;5063409;28;20178;-72
2023/01/27 07:29:52;;;;;;;27.20;17.90;;;;;;;3.99;55.22;97765.06;5059796;28;20433;-72
2023/01/27 07:32:18;;;;;;;27.30;17.03;;;;;;;3.92;54.89;97767.22;5030211;28;20468;-70
2023/01/27 07:34:43;;;;;;;24.80;16.80;;;;;;;3.85;55.14;97768.50;5052683;28;20186;-69
2023/01/27 07:37:09;;;;;;;26.77;17.03;;;;;;;3.88;55.89;97767.50;5061709;28;20185;-71
2023/01/27 07:39:36;;;;;;;28.63;17.67;;;;;;;3.89;55.56;97766.56;5062798;28;20174;-72
2023/01/27 07:42:02;;;;;;;26.90;16.27;;;;;;;3.86;55.59;97759.81;5059530;28;20187;-74
2023/01/27 07:44:27;;;;;;;33.30;17.70;;;;;;;3.89;55.34;97763.97;5069707;28;21006;-73
2023/01/27 07:46:53;;;;;;;26.37;16.90;;;;;;;3.92;55.56;97762.03;5057277;28;20196;-72
2023/01/27 07:49:18;;;;;;;28.00;16.93;;;;;;;3.95;55.78;97768.75;5058513;28;20187;-71
2023/01/27 07:51:44;;;;;;;27.80;16.77;;;;;;;3.83;55.67;97771.22;5060305;28;20206;-71
2023/01/27 07:54:10;;;;;;;24.30;15.83;;;;;;;3.87;55.81;97778.81;5060107;28;20190;-71
2023/01/27 07:56:36;;;;;;;26.27;16.43;;;;;;;3.96;56.62;97783.41;5064853;28;20265;-73
2023/01/27 07:59:02;;;;;;;27.47;16.47;;;;;;;4.00;56.10;97779.69;5060551;28;20517;-71
2023/01/27 08:01:27;;;;;;;26.30;17.20;;;;;;;3.98;55.52;97784.16;5056572;28;20210;-74
2023/01/27 08:03:52;;;;;;;39.03;23.27;;;;;;;3.99;56.29;97784.03;5061619;28;20439;-75
2023/01/27 08:06:18;;;;;;;25.40;17.43;;;;;;;4.05;55.78;97788.00;5043511;28;20281;-76
2023/01/27 08:08:43;;;;;;;26.77;17.23;;;;;;;4.05;55.75;97792.38;5061139;28;20275;-74
2023/01/27 08:11:12;;;;;;;26.00;16.13;;;;;;;3.96;55.59;97784.25;5035671;28;20207;-75
2023/01/27 08:13:37;;;;;;;23.47;14.50;;;;;;;3.98;55.29;97786.75;5064195;28;20293;-73
2023/01/27 08:16:05;;;;;;;24.33;16.03;;;;;;;4.02;55.90;97788.22;5048732;28;20517;-73
2023/01/27 08:18:32;;;;;;;25.93;14.60;;;;;;;4.11;56.12;97792.81;5069219;28;20265;-73
2023/01/27 08:21:02;;;;;;;22.93;14.40;;;;;;;4.12;55.38;97794.50;5054917;28;20442;-74
2023/01/27 08:23:28;;;;;;;23.13;14.73;;;;;;;4.11;55.48;97789.38;5061335;28;20433;-72
2023/01/27 08:25:56;;;;;;;24.87;14.70;;;;;;;4.20;56.07;97786.22;5065054;28;20437;-73
2023/01/27 08:28:22;;;;;;;18.00;12.93;;;;;;;4.11;55.66;97791.97;5054159;28;20198;-74
2023/01/27 08:30:50;;;;;;;20.40;13.90;;;;;;;4.11;55.41;97803.19;5061309;28;20479;-73
2023/01/27 08:33:16;;;;;;;22.73;14.30;;;;;;;4.09;55.25;97804.22;5053201;28;20464;-75
2023/01/27 08:35:43;;;;;;;21.20;13.40;;;;;;;4.06;55.61;97802.66;5053769;28;20520;-74
2023/01/27 08:38:10;;;;;;;25.43;14.13;;;;;;;4.14;55.36;97803.00;5059030;28;20845;-74
2023/01/27 08:40:40;;;;;;;24.20;13.77;;;;;;;4.13;54.45;97809.13;5052112;28;20450;-75
2023/01/27 08:43:06;;;;;;;20.90;13.57;;;;;;;4.12;54.43;97810.06;5056496;28;20481;-75
2023/01/27 08:45:32;;;;;;;21.43;13.97;;;;;;;4.12;54.76;97815.25;5051893;28;20420;-73
2023/01/27 08:47:57;;;;;;;21.47;13.73;;;;;;;4.12;54.41;97812.66;5052916;28;20171;-74
2023/01/27 08:50:23;;;;;;;17.63;11.03;;;;;;;4.08;53.73;97813.75;5037609;28;20203;-72
2023/01/27 08:52:48;;;;;;;21.33;12.10;;;;;;;4.05;53.83;97819.13;5049262;28;20293;-72
2023/01/27 08:55:14;;;;;;;21.63;12.20;;;;;;;4.00;53.52;97810.81;5050029;28;20756;-72
2023/01/27 08:57:39;;;;;;;16.30;10.50;;;;;;;3.83;53.63;97810.09;5050234;28;20273;-73
2023/01/27 09:00:07;;;;;;;17.67;11.73;;;;;;;3.92;54.26;97808.72;5051242;28;20282;-74
2023/01/27 09:02:33;;;;;;;17.70;11.33;;;;;;;3.92;54.57;97823.41;5047360;28;20186;-73
2023/01/27 09:04:58;;;;;;;18.33;12.23;;;;;;;3.86;54.02;97818.63;5042949;28;20445;-74
2023/01/27 09:07:24;;;;;;;20.60;12.43;;;;;;;3.80;53.76;97830.22;5040053;28;20274;-74
2023/01/27 09:09:49;;;;;;;17.77;11.37;;;;;;;3.75;54.53;97825.31;5053543;28;20727;-74
2023/01/27 09:12:15;;;;;;;21.53;12.30;;;;;;;3.77;54.58;97825.22;5045436;28;20235;-73
2023/01/27 09:14:41;;;;;;;23.53;13.50;;;;;;;3.73;54.30;97824.56;5053366;28;20236;-74
2023/01/27 09:17:06;;;;;;;19.47;12.03;;;;;;;3.75;55.02;97824.47;5040186;28;20434;-74
2023/01/27 09:19:32;;;;;;;20.80;12.90;;;;;;;3.74;54.95;97818.47;5052010;28;20183;-71
2023/01/27 09:21:57;;;;;;;22.70;13.17;;;;;;;3.74;55.08;97817.63;5044293;28;20220;-75
2023/01/27 09:24:23;;;;;;;20.53;13.00;;;;;;;3.80;55.62;97830.22;5032457;28;20219;-75
2023/01/27 09:26:48;;;;;;;24.27;12.30;;;;;;;3.81;55.75;97827.50;5051435;28;20218;-74
2023/01/27 09:29:14;;;;;;;25.03;13.40;;;;;;;3.86;55.83;97819.44;5042379;28;20191;-73
2023/01/27 09:31:39;;;;;;;21.43;13.00;;;;;;;3.93;55.09;97812.13;5012334;28;1073010;-74
2023/01/27 09:34:04;;;;;;;19.20;12.57;;;;;;;3.88;54.73;97816.78;5046860;28;20188;-72
2023/01/27 09:36:31;;;;;;;21.57;13.27;;;;;;;3.94;54.45;97826.75;5041256;28;20179;-74
2023/01/27 09:39:01;;;;;;;17.27;12.00;;;;;;;3.98;54.88;97817.88;5039461;28;20189;-72
2023/01/27 09:41:42;;;;;;;22.17;13.17;;;;;;;4.02;54.15;97824.53;5056810;28;20811;-73
2023/01/27 09:44:28;;;;;;;22.98;14.77;;;;;;;4.06;54.04;97820.81;5055548;28;20791;-72
2023/01/27 09:47:07;;;;;;;22.17;13.37;;;;;;;4.10;54.35;97822.28;5059534;28;20550;-75
2023/01/27 09:49:48;;;;;;;20.20;12.53;;;;;;;4.15;53.93;97825.44;5044817;28;20412;-74
2023/01/27 09:52:47;;;;;;;20.20;13.03;;;;;;;4.13;53.13;97816.91;5046620;28;20824;-73
2023/01/27 09:55:36;;;;;;;19.30;12.57;;;;;;;4.05;53.84;97826.09;5047342;28;20512;-74
2023/01/27 09:58:40;;;;;;;23.33;13.67;;;;;;;4.03;53.92;97831.41;5061329;28;20415;-73
2023/01/27 10:01:28;;;;;;;20.23;12.23;;;;;;;4.03;53.40;97836.59;5058980;28;20460;-73
2023/01/27 10:04:13;;;;;;;23.73;14.37;;;;;;;4.08;53.44;97826.72;5063987;28;20458;-73
2023/01/27 10:07:11;;;;;;;22.23;13.07;;;;;;;4.13;52.47;97831.63;5040919;28;20413;-73
2023/01/27 10:09:49;;;;;;;23.90;13.50;;;;;;;3.94;53.02;97835.38;5063940;28;20272;-73
2023/01/27 10:12:38;;;;;;;27.00;16.00;;;;;;;3.96;52.94;97832.69;5055722;28;20444;-73
2023/01/27 10:15:10;;;;;;;28.23;14.93;;;;;;;3.94;53.64;97842.31;5060818;28;20421;-73
2023/01/27 10:18:00;;;;;;;28.30;16.03;;;;;;;3.96;53.54;97835.28;5060378;28;20477;-73
2023/01/27 10:20:31;;;;;;;26.77;14.00;;;;;;;3.94;53.92;97835.38;5051760;28;20433;-70
2023/01/27 10:23:06;;;;;;;25.70;14.90;;;;;;;3.93;54.05;97836.31;5053101;28;20480;-74
2023/01/27 10:26:02;;;;;;;27.90;15.10;;;;;;;3.90;53.48;97833.91;5059373;28;20836;-72
2023/01/27 10:28:29;;;;;;;28.13;14.80;;;;;;;3.94;54.04;97837.97;5066379;28;20425;-72
2023/01/27 10:31:10;;;;;;;27.10;15.13;;;;;;;3.94;53.99;97831.94;5059705;28;21000;-72
2023/01/27 10:33:48;;;;;;;27.03;14.90;;;;;;;3.99;53.97;97824.72;5055265;28;20834;-72
2023/01/27 10:36:37;;;;;;;31.53;16.80;;;;;;;3.96;53.86;97825.75;5056206;28;20428;-73
2023/01/27 10:39:21;;;;;;;30.07;14.73;;;;;;;3.80;53.67;97831.03;5067699;28;20424;-71
2023/01/27 10:42:04;;;;;;;29.37;15.37;;;;;;;3.79;53.58;97828.53;5065285;28;20437;-73
2023/01/27 10:45:07;;;;;;;25.47;15.00;;;;;;;3.86;53.92;97835.00;5072384;28;20446;-73
2023/01/27 10:47:42;;;;;;;20.40;12.40;;;;;;;3.94;53.63;97829.34;5044591;28;20435;-71
2023/01/27 10:50:32;;;;;;;23.17;12.57;;;;;;;3.98;52.96;97834.25;5057723;28;20433;-74
2023/01/27 10:53:07;;;;;;;23.40;12.83;;;;;;;4.08;53.38;97839.69;5041490;28;20453;-75
2023/01/27 10:55:54;;;;;;;21.83;12.13;;;;;;;3.96;52.69;97851.69;5045874;28;20435;-72
2023/01/27 10:58:35;;;;;;;23.53;12.03;;;;;;;3.92;52.71;97842.44;5038053;28;20853;-73
2023/01/27 11:01:05;;;;;;;21.40;12.07;;;;;;;3.98;52.83;97846.41;5049189;28;20450;-74
2023/01/27 11:03:43;;;;;;;20.60;12.53;;;;;;;4.08;53.33;97838.88;5055102;28;20417;-74
2023/01/27 11:06:20;;;;;;;23.00;13.07;;;;;;;4.20;52.97;97840.72;5039860;28;20956;-73
2023/01/27 11:08:49;;;;;;;20.67;11.77;;;;;;;4.10;52.90;97837.84;5060189;28;20417;-73
2023/01/27 11:14:04;;;;;;;18.20;10.83;;;;;;;4.19;52.51;97827.81;5059111;28;20453;-73
2023/01/27 11:16:36;;;;;;;20.60;11.90;;;;;;;4.17;52.57;97827.91;5042414;28;20429;-74
2023/01/27 11:19:13;;;;;;;20.37;11.77;;;;;;;4.16;52.57;97823.66;5058319;28;20827;-74
2023/01/27 11:21:39;;;;;;;20.03;11.70;;;;;;;4.21;52.86;97825.97;5047183;28;20473;-77
2023/01/27 11:24:18;;;;;;;19.83;12.13;;;;;;;4.22;52.84;97835.41;5036112;28;20494;-74
2023/01/27 11:26:49;;;;;;;19.90;11.73;;;;;;;4.19;52.57;97835.59;5041779;28;20207;-74
2023/01/27 11:29:23;;;;;;;18.27;11.00;;;;;;;4.09;51.95;97833.59;5053799;28;20424;-72
2023/01/27 11:32:07;;;;;;;19.73;11.37;;;;;;;4.12;52.48;97828.22;5050871;28;20532;-73
2023/01/27 11:34:59;;;;;;;19.90;11.87;;;;;;;4.07;52.50;97827.66;5044068;28;20425;-72
2023/01/27 11:37:28;;;;;;;21.07;12.10;;;;;;;4.17;52.66;97819.28;5046406;28;20459;-72
2023/01/27 11:39:55;;;;;;;23.93;11.53;;;;;;;4.13;53.10;97818.66;5061364;28;20465;-73
2023/01/27 11:42:21;;;;;;;19.87;11.13;;;;;;;4.19;52.77;97818.28;5053113;28;20902;-71
2023/01/27 11:44:50;;;;;;;19.90;11.20;;;;;;;4.24;53.08;97818.00;5059887;28;20417;-72
2023/01/27 11:47:24;;;;;;;21.20;11.97;;;;;;;4.15;52.14;97809.88;5047119;28;20806;-73
2023/01/27 11:49:51;;;;;;;21.20;12.10;;;;;;;4.20;52.17;97806.13;5043834;28;20432;-73
2023/01/27 11:52:18;;;;;;;20.60;12.20;;;;;;;4.20;52.81;97800.94;5020919;28;20501;-70
2023/01/27 11:55:14;;;;;;;22.00;12.13;;;;;;;4.21;52.63;97789.63;5042736;28;20424;-71
2023/01/27 11:57:41;;;;;;;17.33;10.33;;;;;;;4.20;52.21;97808.72;5046484;28;20835;-73
2023/01/27 12:00:20;;;;;;;19.53;11.17;;;;;;;4.22;52.47;97809.47;5051591;28;20444;-73
2023/01/27 12:02:55;;;;;;;21.93;11.43;;;;;;;4.21;52.68;97805.19;5068112;28;20991;-71
2023/01/27 12:05:27;;;;;;;19.90;11.10;;;;;;;4.28;52.98;97801.31;5038450;28;20422;-73
2023/01/27 12:07:59;;;;;;;20.27;11.73;;;;;;;4.27;52.46;97800.44;5054617;28;20427;-70